sensor_id;sensor_type;location;lat;lon;timestamp;P1;durP1;ratioP1;P2;durP2;ratioP2
24483;SDS011;12643;51.620;7.548;2023-06-22T00:02:08;8.93;;;6.65;;
24483;SDS011;12643;51.620;7.548;2023-06-22T00:04:36;9.82;;;7.13;;
24483;SDS011;12643;51.620;7.548;2023-06-22T00:07:05;9.02;;;6.57;;
24483;SDS011;12643;51.620;7.548;2023-06-22T00:09:34;9.32;;;7.43;;
24483;SDS011;12643;51.620;7.548;2023-06-22T00:12:02;8.13;;;7.15;;
24483;SDS011;12643;51.620;7.548;2023-06-22T00:14:30;8.98;;;6.55;;
24483;SDS011;12643;51.620;7.548;2023-06-22T00:16:59;9.98;;;6.72;;
24483;SDS011;12643;51.620;7.548;2023-06-22T00:19:28;12.38;;;6.70;;
24483;SDS011;12643;51.620;7.548;2023-06-22T00:21:55;6.30;;;5.20;;
24483;SDS011;12643;51.620;7.548;2023-06-22T00:24:25;6.72;;;6.07;;
24483;SDS011;12643;51.620;7.548;2023-06-22T00:26:54;7.85;;;5.97;;
24483;SDS011;12643;51.620;7.548;2023-06-22T00:29:22;10.55;;;8.25;;
24483;SDS011;12643;51.620;7.548;2023-06-22T00:31:52;9.50;;;7.97;;
24483;SDS011;12643;51.620;7.548;2023-06-22T00:34:20;8.18;;;6.07;;
24483;SDS011;12643;51.620;7.548;2023-06-22T00:36:49;7.75;;;6.93;;
24483;SDS011;12643;51.620;7.548;2023-06-22T00:39:17;6.28;;;5.68;;
24483;SDS011;12643;51.620;7.548;2023-06-22T00:41:45;6.95;;;5.68;;
24483;SDS011;12643;51.620;7.548;2023-06-22T00:44:13;4.93;;;4.38;;
24483;SDS011;12643;51.620;7.548;2023-06-22T00:46:41;10.15;;;8.65;;
24483;SDS011;12643;51.620;7.548;2023-06-22T00:49:09;8.00;;;7.20;;
24483;SDS011;12643;51.620;7.548;2023-06-22T00:51:37;9.38;;;8.43;;
24483;SDS011;12643;51.620;7.548;2023-06-22T00:54:14;11.30;;;8.10;;
24483;SDS011;12643;51.620;7.548;2023-06-22T00:56:50;9.00;;;7.68;;
24483;SDS011;12643;51.620;7.548;2023-06-22T01:01:50;7.47;;;6.75;;
24483;SDS011;12643;51.620;7.548;2023-06-22T01:04:18;12.30;;;8.43;;
24483;SDS011;12643;51.620;7.548;2023-06-22T01:06:50;8.60;;;7.60;;
24483;SDS011;12643;51.620;7.548;2023-06-22T01:09:25;9.73;;;7.35;;
24483;SDS011;12643;51.620;7.548;2023-06-22T01:11:59;8.73;;;6.22;;
24483;SDS011;12643;51.620;7.548;2023-06-22T01:14:32;10.27;;;6.15;;
24483;SDS011;12643;51.620;7.548;2023-06-22T01:17:04;5.85;;;5.20;;
24483;SDS011;12643;51.620;7.548;2023-06-22T01:19:35;5.80;;;5.18;;
24483;SDS011;12643;51.620;7.548;2023-06-22T01:22:08;9.27;;;8.30;;
24483;SDS011;12643;51.620;7.548;2023-06-22T01:24:45;8.48;;;6.47;;
24483;SDS011;12643;51.620;7.548;2023-06-22T01:27:25;8.98;;;7.65;;
24483;SDS011;12643;51.620;7.548;2023-06-22T01:30:01;8.88;;;7.97;;
24483;SDS011;12643;51.620;7.548;2023-06-22T01:32:31;6.35;;;5.65;;
24483;SDS011;12643;51.620;7.548;2023-06-22T01:35:01;7.30;;;5.53;;
24483;SDS011;12643;51.620;7.548;2023-06-22T01:37:32;7.25;;;5.38;;
24483;SDS011;12643;51.620;7.548;2023-06-22T01:40:02;9.55;;;6.60;;
24483;SDS011;12643;51.620;7.548;2023-06-22T01:42:31;10.35;;;9.18;;
24483;SDS011;12643;51.620;7.548;2023-06-22T01:45:01;10.93;;;9.73;;
24483;SDS011;12643;51.620;7.548;2023-06-22T01:47:29;14.13;;;9.90;;
24483;SDS011;12643;51.620;7.548;2023-06-22T01:49:57;12.02;;;10.70;;
24483;SDS011;12643;51.620;7.548;2023-06-22T01:52:25;10.48;;;9.43;;
24483;SDS011;12643;51.620;7.548;2023-06-22T01:54:53;9.63;;;7.90;;
24483;SDS011;12643;51.620;7.548;2023-06-22T01:57:23;9.55;;;7.72;;
24483;SDS011;12643;51.620;7.548;2023-06-22T01:59:53;11.55;;;10.07;;
24483;SDS011;12643;51.620;7.548;2023-06-22T02:02:29;8.43;;;7.25;;
24483;SDS011;12643;51.620;7.548;2023-06-22T02:05:03;10.57;;;9.10;;
24483;SDS011;12643;51.620;7.548;2023-06-22T02:07:34;11.65;;;10.02;;
24483;SDS011;12643;51.620;7.548;2023-06-22T02:10:07;12.25;;;10.32;;
24483;SDS011;12643;51.620;7.548;2023-06-22T02:12:37;13.75;;;11.40;;
24483;SDS011;12643;51.620;7.548;2023-06-22T02:15:07;11.30;;;9.88;;
24483;SDS011;12643;51.620;7.548;2023-06-22T02:17:39;9.05;;;8.18;;
24483;SDS011;12643;51.620;7.548;2023-06-22T02:20:12;9.88;;;8.57;;
24483;SDS011;12643;51.620;7.548;2023-06-22T02:22:40;11.02;;;9.50;;
24483;SDS011;12643;51.620;7.548;2023-06-22T02:25:08;12.85;;;10.32;;
24483;SDS011;12643;51.620;7.548;2023-06-22T02:27:36;12.07;;;10.05;;
24483;SDS011;12643;51.620;7.548;2023-06-22T02:30:06;10.63;;;9.55;;
24483;SDS011;12643;51.620;7.548;2023-06-22T02:32:35;14.45;;;9.80;;
24483;SDS011;12643;51.620;7.548;2023-06-22T02:35:04;13.57;;;9.40;;
24483;SDS011;12643;51.620;7.548;2023-06-22T02:37:34;11.48;;;9.95;;
24483;SDS011;12643;51.620;7.548;2023-06-22T02:40:04;11.45;;;9.80;;
24483;SDS011;12643;51.620;7.548;2023-06-22T02:42:34;11.70;;;10.50;;
24483;SDS011;12643;51.620;7.548;2023-06-22T02:45:02;12.77;;;10.23;;
24483;SDS011;12643;51.620;7.548;2023-06-22T02:47:31;12.25;;;10.05;;
24483;SDS011;12643;51.620;7.548;2023-06-22T02:49:59;14.82;;;10.70;;
24483;SDS011;12643;51.620;7.548;2023-06-22T02:52:29;10.95;;;9.00;;
24483;SDS011;12643;51.620;7.548;2023-06-22T02:54:56;11.60;;;10.25;;
24483;SDS011;12643;51.620;7.548;2023-06-22T02:57:24;11.45;;;10.25;;
24483;SDS011;12643;51.620;7.548;2023-06-22T02:59:52;12.00;;;10.80;;
24483;SDS011;12643;51.620;7.548;2023-06-22T03:02:20;10.60;;;9.43;;
24483;SDS011;12643;51.620;7.548;2023-06-22T03:04:48;13.35;;;9.73;;
24483;SDS011;12643;51.620;7.548;2023-06-22T03:07:19;10.57;;;8.68;;
24483;SDS011;12643;51.620;7.548;2023-06-22T03:09:48;10.05;;;7.70;;
24483;SDS011;12643;51.620;7.548;2023-06-22T03:12:16;11.40;;;10.32;;
24483;SDS011;12643;51.620;7.548;2023-06-22T03:14:44;14.52;;;9.48;;
24483;SDS011;12643;51.620;7.548;2023-06-22T03:17:12;10.63;;;9.52;;
24483;SDS011;12643;51.620;7.548;2023-06-22T03:19:40;15.15;;;12.25;;
24483;SDS011;12643;51.620;7.548;2023-06-22T03:22:07;14.65;;;12.25;;
24483;SDS011;12643;51.620;7.548;2023-06-22T03:24:35;16.67;;;13.38;;
24483;SDS011;12643;51.620;7.548;2023-06-22T03:27:06;14.55;;;13.07;;
24483;SDS011;12643;51.620;7.548;2023-06-22T03:29:33;14.50;;;12.85;;
24483;SDS011;12643;51.620;7.548;2023-06-22T03:32:02;16.05;;;13.98;;
24483;SDS011;12643;51.620;7.548;2023-06-22T03:34:30;16.77;;;15.02;;
24483;SDS011;12643;51.620;7.548;2023-06-22T03:36:59;16.63;;;14.20;;
24483;SDS011;12643;51.620;7.548;2023-06-22T03:39:27;18.88;;;16.02;;
24483;SDS011;12643;51.620;7.548;2023-06-22T03:41:56;16.83;;;14.98;;
24483;SDS011;12643;51.620;7.548;2023-06-22T03:44:26;18.67;;;13.90;;
24483;SDS011;12643;51.620;7.548;2023-06-22T03:46:54;16.85;;;14.40;;
24483;SDS011;12643;51.620;7.548;2023-06-22T03:49:22;12.75;;;11.38;;
24483;SDS011;12643;51.620;7.548;2023-06-22T03:51:50;14.02;;;12.65;;
24483;SDS011;12643;51.620;7.548;2023-06-22T03:54:18;14.73;;;13.23;;
24483;SDS011;12643;51.620;7.548;2023-06-22T03:56:45;19.83;;;15.52;;
24483;SDS011;12643;51.620;7.548;2023-06-22T03:59:13;11.68;;;10.48;;
24483;SDS011;12643;51.620;7.548;2023-06-22T04:01:43;16.63;;;13.65;;
24483;SDS011;12643;51.620;7.548;2023-06-22T04:04:12;18.95;;;14.68;;
24483;SDS011;12643;51.620;7.548;2023-06-22T04:06:39;18.17;;;16.08;;
24483;SDS011;12643;51.620;7.548;2023-06-22T04:09:07;21.77;;;16.33;;
24483;SDS011;12643;51.620;7.548;2023-06-22T04:11:35;18.08;;;15.38;;
24483;SDS011;12643;51.620;7.548;2023-06-22T04:14:03;16.85;;;15.13;;
24483;SDS011;12643;51.620;7.548;2023-06-22T04:16:31;20.83;;;16.17;;
24483;SDS011;12643;51.620;7.548;2023-06-22T04:19:01;18.88;;;16.60;;
24483;SDS011;12643;51.620;7.548;2023-06-22T04:21:29;20.75;;;16.42;;
24483;SDS011;12643;51.620;7.548;2023-06-22T04:23:57;18.80;;;16.20;;
24483;SDS011;12643;51.620;7.548;2023-06-22T04:26:24;18.65;;;16.33;;
24483;SDS011;12643;51.620;7.548;2023-06-22T04:28:52;17.27;;;15.43;;
24483;SDS011;12643;51.620;7.548;2023-06-22T04:31:21;17.48;;;15.73;;
24483;SDS011;12643;51.620;7.548;2023-06-22T04:33:57;18.65;;;16.75;;
24483;SDS011;12643;51.620;7.548;2023-06-22T04:36:32;20.00;;;15.75;;
24483;SDS011;12643;51.620;7.548;2023-06-22T04:39:04;19.13;;;16.92;;
24483;SDS011;12643;51.620;7.548;2023-06-22T04:41:32;17.15;;;15.27;;
24483;SDS011;12643;51.620;7.548;2023-06-22T04:44:08;18.60;;;15.95;;
24483;SDS011;12643;51.620;7.548;2023-06-22T04:46:37;19.25;;;14.82;;
24483;SDS011;12643;51.620;7.548;2023-06-22T04:49:05;17.60;;;15.32;;
24483;SDS011;12643;51.620;7.548;2023-06-22T04:51:39;17.77;;;14.68;;
24483;SDS011;12643;51.620;7.548;2023-06-22T04:56:36;22.92;;;17.13;;
24483;SDS011;12643;51.620;7.548;2023-06-22T04:59:08;20.15;;;16.27;;
24483;SDS011;12643;51.620;7.548;2023-06-22T05:01:38;16.95;;;14.05;;
24483;SDS011;12643;51.620;7.548;2023-06-22T05:04:07;18.60;;;15.70;;
24483;SDS011;12643;51.620;7.548;2023-06-22T05:06:35;16.42;;;14.82;;
24483;SDS011;12643;51.620;7.548;2023-06-22T05:09:05;15.68;;;13.90;;
24483;SDS011;12643;51.620;7.548;2023-06-22T05:11:33;19.20;;;15.55;;
24483;SDS011;12643;51.620;7.548;2023-06-22T05:14:03;15.68;;;14.18;;
24483;SDS011;12643;51.620;7.548;2023-06-22T05:19:00;18.02;;;15.05;;
24483;SDS011;12643;51.620;7.548;2023-06-22T05:21:29;18.23;;;16.02;;
24483;SDS011;12643;51.620;7.548;2023-06-22T05:23:57;16.70;;;14.80;;
24483;SDS011;12643;51.620;7.548;2023-06-22T05:26:30;19.45;;;15.90;;
24483;SDS011;12643;51.620;7.548;2023-06-22T05:28:59;17.40;;;15.68;;
24483;SDS011;12643;51.620;7.548;2023-06-22T05:31:28;19.08;;;15.55;;
24483;SDS011;12643;51.620;7.548;2023-06-22T05:33:56;18.85;;;15.18;;
24483;SDS011;12643;51.620;7.548;2023-06-22T05:36:25;19.95;;;14.25;;
24483;SDS011;12643;51.620;7.548;2023-06-22T05:38:53;16.42;;;14.80;;
24483;SDS011;12643;51.620;7.548;2023-06-22T05:41:23;16.95;;;15.20;;
24483;SDS011;12643;51.620;7.548;2023-06-22T05:43:52;14.80;;;13.30;;
24483;SDS011;12643;51.620;7.548;2023-06-22T05:46:20;14.77;;;13.07;;
24483;SDS011;12643;51.620;7.548;2023-06-22T05:48:48;17.15;;;14.63;;
24483;SDS011;12643;51.620;7.548;2023-06-22T05:51:16;18.60;;;14.75;;
24483;SDS011;12643;51.620;7.548;2023-06-22T05:53:44;17.20;;;14.30;;
24483;SDS011;12643;51.620;7.548;2023-06-22T05:56:15;20.38;;;15.25;;
24483;SDS011;12643;51.620;7.548;2023-06-22T05:58:43;17.60;;;15.65;;
24483;SDS011;12643;51.620;7.548;2023-06-22T06:01:13;17.85;;;14.35;;
24483;SDS011;12643;51.620;7.548;2023-06-22T06:03:41;19.08;;;14.35;;
24483;SDS011;12643;51.620;7.548;2023-06-22T06:06:09;14.18;;;12.75;;
24483;SDS011;12643;51.620;7.548;2023-06-22T06:08:37;20.60;;;14.98;;
24483;SDS011;12643;51.620;7.548;2023-06-22T06:11:06;19.15;;;14.88;;
24483;SDS011;12643;51.620;7.548;2023-06-22T06:13:34;16.88;;;14.80;;
24483;SDS011;12643;51.620;7.548;2023-06-22T06:16:02;18.65;;;14.93;;
24483;SDS011;12643;51.620;7.548;2023-06-22T06:18:31;15.35;;;13.75;;
24483;SDS011;12643;51.620;7.548;2023-06-22T06:20:59;14.80;;;13.30;;
24483;SDS011;12643;51.620;7.548;2023-06-22T06:23:27;18.85;;;14.88;;
24483;SDS011;12643;51.620;7.548;2023-06-22T06:25:54;18.70;;;14.15;;
24483;SDS011;12643;51.620;7.548;2023-06-22T06:28:24;18.40;;;13.68;;
24483;SDS011;12643;51.620;7.548;2023-06-22T06:30:53;16.52;;;14.35;;
24483;SDS011;12643;51.620;7.548;2023-06-22T06:33:21;15.93;;;13.05;;
24483;SDS011;12643;51.620;7.548;2023-06-22T06:35:51;15.48;;;13.23;;
24483;SDS011;12643;51.620;7.548;2023-06-22T06:38:21;15.88;;;12.63;;
24483;SDS011;12643;51.620;7.548;2023-06-22T06:40:49;17.27;;;14.40;;
24483;SDS011;12643;51.620;7.548;2023-06-22T06:43:17;13.73;;;12.38;;
24483;SDS011;12643;51.620;7.548;2023-06-22T06:45:45;15.20;;;13.20;;
24483;SDS011;12643;51.620;7.548;2023-06-22T06:48:13;21.40;;;15.00;;
24483;SDS011;12643;51.620;7.548;2023-06-22T06:50:42;20.08;;;14.75;;
24483;SDS011;12643;51.620;7.548;2023-06-22T06:53:11;17.63;;;15.15;;
24483;SDS011;12643;51.620;7.548;2023-06-22T06:55:39;18.40;;;15.60;;
24483;SDS011;12643;51.620;7.548;2023-06-22T06:58:07;16.73;;;15.05;;
24483;SDS011;12643;51.620;7.548;2023-06-22T07:00:37;20.33;;;16.45;;
24483;SDS011;12643;51.620;7.548;2023-06-22T07:03:05;17.40;;;15.50;;
24483;SDS011;12643;51.620;7.548;2023-06-22T07:05:33;24.27;;;17.98;;
24483;SDS011;12643;51.620;7.548;2023-06-22T07:08:02;19.23;;;16.08;;
24483;SDS011;12643;51.620;7.548;2023-06-22T07:10:31;18.05;;;16.10;;
24483;SDS011;12643;51.620;7.548;2023-06-22T07:12:59;19.73;;;16.65;;
24483;SDS011;12643;51.620;7.548;2023-06-22T07:15:27;18.52;;;16.52;;
24483;SDS011;12643;51.620;7.548;2023-06-22T07:17:56;19.02;;;17.05;;
24483;SDS011;12643;51.620;7.548;2023-06-22T07:20:24;18.25;;;16.42;;
24483;SDS011;12643;51.620;7.548;2023-06-22T07:22:52;22.17;;;17.20;;
24483;SDS011;12643;51.620;7.548;2023-06-22T07:25:20;20.60;;;18.42;;
24483;SDS011;12643;51.620;7.548;2023-06-22T07:27:58;22.75;;;19.60;;
24483;SDS011;12643;51.620;7.548;2023-06-22T07:30:27;23.60;;;19.15;;
24483;SDS011;12643;51.620;7.548;2023-06-22T07:32:56;21.75;;;19.30;;
24483;SDS011;12643;51.620;7.548;2023-06-22T07:35:29;21.65;;;19.40;;
24483;SDS011;12643;51.620;7.548;2023-06-22T07:37:58;22.80;;;20.48;;
24483;SDS011;12643;51.620;7.548;2023-06-22T07:40:26;22.85;;;20.45;;
24483;SDS011;12643;51.620;7.548;2023-06-22T07:42:54;26.85;;;21.88;;
24483;SDS011;12643;51.620;7.548;2023-06-22T07:45:23;24.02;;;21.15;;
24483;SDS011;12643;51.620;7.548;2023-06-22T07:47:51;24.38;;;21.55;;
24483;SDS011;12643;51.620;7.548;2023-06-22T07:50:19;29.45;;;23.73;;
24483;SDS011;12643;51.620;7.548;2023-06-22T07:52:47;27.73;;;24.70;;
24483;SDS011;12643;51.620;7.548;2023-06-22T07:55:14;25.17;;;22.58;;
24483;SDS011;12643;51.620;7.548;2023-06-22T07:57:43;23.48;;;21.05;;
24483;SDS011;12643;51.620;7.548;2023-06-22T08:00:11;26.90;;;21.50;;
24483;SDS011;12643;51.620;7.548;2023-06-22T08:02:42;26.17;;;23.38;;
24483;SDS011;12643;51.620;7.548;2023-06-22T08:05:13;25.45;;;22.13;;
24483;SDS011;12643;51.620;7.548;2023-06-22T08:07:41;27.65;;;23.48;;
24483;SDS011;12643;51.620;7.548;2023-06-22T08:10:10;26.50;;;22.10;;
24483;SDS011;12643;51.620;7.548;2023-06-22T08:12:39;26.50;;;22.70;;
24483;SDS011;12643;51.620;7.548;2023-06-22T08:15:08;29.75;;;22.73;;
24483;SDS011;12643;51.620;7.548;2023-06-22T08:17:36;25.50;;;23.00;;
24483;SDS011;12643;51.620;7.548;2023-06-22T08:20:08;25.77;;;23.05;;
24483;SDS011;12643;51.620;7.548;2023-06-22T08:22:37;25.88;;;23.20;;
24483;SDS011;12643;51.620;7.548;2023-06-22T08:25:06;24.65;;;22.15;;
24483;SDS011;12643;51.620;7.548;2023-06-22T08:27:37;24.45;;;22.00;;
24483;SDS011;12643;51.620;7.548;2023-06-22T08:30:05;24.45;;;21.98;;
24483;SDS011;12643;51.620;7.548;2023-06-22T08:32:34;26.00;;;23.30;;
24483;SDS011;12643;51.620;7.548;2023-06-22T08:35:02;25.33;;;22.50;;
24483;SDS011;12643;51.620;7.548;2023-06-22T08:37:34;27.02;;;23.17;;
24483;SDS011;12643;51.620;7.548;2023-06-22T08:40:02;29.57;;;23.47;;
24483;SDS011;12643;51.620;7.548;2023-06-22T08:45:02;26.48;;;23.63;;
24483;SDS011;12643;51.620;7.548;2023-06-22T08:47:30;24.52;;;21.88;;
24483;SDS011;12643;51.620;7.548;2023-06-22T08:50:00;28.20;;;24.48;;
24483;SDS011;12643;51.620;7.548;2023-06-22T08:52:36;24.60;;;21.92;;
24483;SDS011;12643;51.620;7.548;2023-06-22T08:55:17;26.77;;;23.75;;
24483;SDS011;12643;51.620;7.548;2023-06-22T08:58:02;25.02;;;22.30;;
24483;SDS011;12643;51.620;7.548;2023-06-22T09:04:34;22.40;;;20.13;;
24483;SDS011;12643;51.620;7.548;2023-06-22T09:07:11;23.20;;;20.20;;
24483;SDS011;12643;51.620;7.548;2023-06-22T09:12:45;22.02;;;18.65;;
24483;SDS011;12643;51.620;7.548;2023-06-22T09:18:14;22.10;;;18.42;;
24483;SDS011;12643;51.620;7.548;2023-06-22T09:20:43;20.05;;;17.33;;
24483;SDS011;12643;51.620;7.548;2023-06-22T09:23:11;18.67;;;16.58;;
24483;SDS011;12643;51.620;7.548;2023-06-22T09:25:41;19.13;;;16.58;;
24483;SDS011;12643;51.620;7.548;2023-06-22T09:28:10;17.63;;;15.75;;
24483;SDS011;12643;51.620;7.548;2023-06-22T09:30:38;17.67;;;14.82;;
24483;SDS011;12643;51.620;7.548;2023-06-22T09:33:06;17.27;;;15.30;;
24483;SDS011;12643;51.620;7.548;2023-06-22T09:35:34;17.83;;;16.05;;
24483;SDS011;12643;51.620;7.548;2023-06-22T09:38:02;20.38;;;15.98;;
24483;SDS011;12643;51.620;7.548;2023-06-22T09:40:31;17.77;;;15.98;;
24483;SDS011;12643;51.620;7.548;2023-06-22T09:43:02;16.83;;;15.18;;
24483;SDS011;12643;51.620;7.548;2023-06-22T09:45:30;19.35;;;14.20;;
24483;SDS011;12643;51.620;7.548;2023-06-22T09:47:59;13.02;;;11.60;;
24483;SDS011;12643;51.620;7.548;2023-06-22T09:50:27;14.70;;;13.20;;
24483;SDS011;12643;51.620;7.548;2023-06-22T09:52:55;15.20;;;13.45;;
24483;SDS011;12643;51.620;7.548;2023-06-22T09:55:23;16.80;;;13.82;;
24483;SDS011;12643;51.620;7.548;2023-06-22T09:57:50;12.23;;;10.98;;
24483;SDS011;12643;51.620;7.548;2023-06-22T10:00:21;12.38;;;10.85;;
24483;SDS011;12643;51.620;7.548;2023-06-22T10:02:49;11.82;;;10.55;;
24483;SDS011;12643;51.620;7.548;2023-06-22T10:05:17;15.68;;;12.75;;
24483;SDS011;12643;51.620;7.548;2023-06-22T10:07:45;13.88;;;12.00;;
24483;SDS011;12643;51.620;7.548;2023-06-22T10:10:13;13.30;;;11.65;;
24483;SDS011;12643;51.620;7.548;2023-06-22T10:12:42;15.60;;;10.07;;
24483;SDS011;12643;51.620;7.548;2023-06-22T10:15:12;12.63;;;10.30;;
24483;SDS011;12643;51.620;7.548;2023-06-22T10:17:41;11.45;;;10.15;;
24483;SDS011;12643;51.620;7.548;2023-06-22T10:20:09;14.35;;;11.68;;
24483;SDS011;12643;51.620;7.548;2023-06-22T10:22:38;12.63;;;11.38;;
24483;SDS011;12643;51.620;7.548;2023-06-22T10:25:07;13.10;;;11.57;;
24483;SDS011;12643;51.620;7.548;2023-06-22T10:27:35;12.25;;;10.95;;
24483;SDS011;12643;51.620;7.548;2023-06-22T10:30:05;12.80;;;9.38;;
24483;SDS011;12643;51.620;7.548;2023-06-22T10:32:34;10.55;;;9.65;;
24483;SDS011;12643;51.620;7.548;2023-06-22T10:35:04;12.77;;;9.95;;
24483;SDS011;12643;51.620;7.548;2023-06-22T10:37:32;12.20;;;10.98;;
24483;SDS011;12643;51.620;7.548;2023-06-22T10:40:00;17.05;;;14.43;;
24483;SDS011;12643;51.620;7.548;2023-06-22T10:42:29;14.25;;;10.98;;
24483;SDS011;12643;51.620;7.548;2023-06-22T10:44:57;11.65;;;8.80;;
24483;SDS011;12643;51.620;7.548;2023-06-22T10:47:25;9.05;;;8.20;;
24483;SDS011;12643;51.620;7.548;2023-06-22T10:49:53;10.25;;;9.20;;
24483;SDS011;12643;51.620;7.548;2023-06-22T10:52:22;10.82;;;9.73;;
24483;SDS011;12643;51.620;7.548;2023-06-22T10:54:50;14.93;;;10.32;;
24483;SDS011;12643;51.620;7.548;2023-06-22T10:57:18;13.57;;;9.93;;
24483;SDS011;12643;51.620;7.548;2023-06-22T10:59:46;10.90;;;9.70;;
24483;SDS011;12643;51.620;7.548;2023-06-22T11:02:14;12.90;;;10.05;;
24483;SDS011;12643;51.620;7.548;2023-06-22T11:04:43;11.00;;;10.00;;
24483;SDS011;12643;51.620;7.548;2023-06-22T11:07:13;11.45;;;10.23;;
24483;SDS011;12643;51.620;7.548;2023-06-22T11:09:44;14.65;;;11.43;;
24483;SDS011;12643;51.620;7.548;2023-06-22T11:12:12;12.18;;;10.98;;
24483;SDS011;12643;51.620;7.548;2023-06-22T11:14:40;11.23;;;9.95;;
24483;SDS011;12643;51.620;7.548;2023-06-22T11:17:07;12.23;;;10.13;;
24483;SDS011;12643;51.620;7.548;2023-06-22T11:19:35;12.45;;;8.82;;
24483;SDS011;12643;51.620;7.548;2023-06-22T11:22:03;11.30;;;8.02;;
24483;SDS011;12643;51.620;7.548;2023-06-22T11:24:32;9.23;;;8.18;;
24483;SDS011;12643;51.620;7.548;2023-06-22T11:27:01;9.82;;;8.93;;
24483;SDS011;12643;51.620;7.548;2023-06-22T11:29:29;11.50;;;9.35;;
24483;SDS011;12643;51.620;7.548;2023-06-22T11:31:57;10.23;;;9.18;;
24483;SDS011;12643;51.620;7.548;2023-06-22T11:34:25;9.05;;;8.25;;
24483;SDS011;12643;51.620;7.548;2023-06-22T11:36:53;9.63;;;8.73;;
24483;SDS011;12643;51.620;7.548;2023-06-22T11:39:21;11.43;;;8.63;;
24483;SDS011;12643;51.620;7.548;2023-06-22T11:41:49;8.90;;;8.00;;
24483;SDS011;12643;51.620;7.548;2023-06-22T11:44:18;11.93;;;8.30;;
24483;SDS011;12643;51.620;7.548;2023-06-22T11:46:46;9.25;;;8.02;;
24483;SDS011;12643;51.620;7.548;2023-06-22T11:49:14;9.43;;;8.35;;
24483;SDS011;12643;51.620;7.548;2023-06-22T11:51:43;8.90;;;8.00;;
24483;SDS011;12643;51.620;7.548;2023-06-22T11:54:11;9.88;;;8.88;;
24483;SDS011;12643;51.620;7.548;2023-06-22T11:56:38;10.43;;;7.88;;
24483;SDS011;12643;51.620;7.548;2023-06-22T11:59:06;13.43;;;9.63;;
24483;SDS011;12643;51.620;7.548;2023-06-22T12:01:36;10.82;;;9.82;;
24483;SDS011;12643;51.620;7.548;2023-06-22T12:04:04;10.75;;;9.75;;
24483;SDS011;12643;51.620;7.548;2023-06-22T12:06:32;11.68;;;10.25;;
24483;SDS011;12643;51.620;7.548;2023-06-22T12:09:02;14.43;;;10.43;;
24483;SDS011;12643;51.620;7.548;2023-06-22T12:11:31;13.23;;;11.10;;
24483;SDS011;12643;51.620;7.548;2023-06-22T12:13:59;13.75;;;10.63;;
24483;SDS011;12643;51.620;7.548;2023-06-22T12:16:27;14.10;;;11.10;;
24483;SDS011;12643;51.620;7.548;2023-06-22T12:18:57;10.55;;;9.32;;
24483;SDS011;12643;51.620;7.548;2023-06-22T12:21:25;11.15;;;9.90;;
24483;SDS011;12643;51.620;7.548;2023-06-22T12:23:53;13.63;;;11.13;;
24483;SDS011;12643;51.620;7.548;2023-06-22T12:26:21;13.02;;;11.23;;
24483;SDS011;12643;51.620;7.548;2023-06-22T12:28:49;12.00;;;10.68;;
24483;SDS011;12643;51.620;7.548;2023-06-22T12:31:16;15.45;;;12.52;;
24483;SDS011;12643;51.620;7.548;2023-06-22T12:33:44;15.23;;;13.52;;
24483;SDS011;12643;51.620;7.548;2023-06-22T12:36:14;14.75;;;12.45;;
24483;SDS011;12643;51.620;7.548;2023-06-22T12:38:42;14.00;;;12.60;;
24483;SDS011;12643;51.620;7.548;2023-06-22T12:41:10;14.50;;;13.00;;
24483;SDS011;12643;51.620;7.548;2023-06-22T12:43:40;16.75;;;13.27;;
24483;SDS011;12643;51.620;7.548;2023-06-22T12:46:08;18.27;;;14.13;;
24483;SDS011;12643;51.620;7.548;2023-06-22T12:48:35;21.30;;;15.35;;
24483;SDS011;12643;51.620;7.548;2023-06-22T12:51:07;15.40;;;13.80;;
24483;SDS011;12643;51.620;7.548;2023-06-22T12:53:37;14.93;;;13.43;;
24483;SDS011;12643;51.620;7.548;2023-06-22T12:56:05;15.90;;;14.10;;
24483;SDS011;12643;51.620;7.548;2023-06-22T12:58:33;18.00;;;14.80;;
24483;SDS011;12643;51.620;7.548;2023-06-22T13:01:00;20.55;;;15.13;;
24483;SDS011;12643;51.620;7.548;2023-06-22T13:03:28;20.63;;;16.08;;
24483;SDS011;12643;51.620;7.548;2023-06-22T13:05:56;17.13;;;15.13;;
24483;SDS011;12643;51.620;7.548;2023-06-22T13:08:24;18.27;;;14.98;;
24483;SDS011;12643;51.620;7.548;2023-06-22T13:10:54;16.73;;;15.00;;
24483;SDS011;12643;51.620;7.548;2023-06-22T13:13:23;17.65;;;14.82;;
24483;SDS011;12643;51.620;7.548;2023-06-22T13:15:52;17.27;;;15.57;;
24483;SDS011;12643;51.620;7.548;2023-06-22T13:18:20;16.50;;;14.93;;
24483;SDS011;12643;51.620;7.548;2023-06-22T13:20:48;17.75;;;15.95;;
24483;SDS011;12643;51.620;7.548;2023-06-22T13:23:16;16.98;;;15.25;;
24483;SDS011;12643;51.620;7.548;2023-06-22T13:25:44;17.92;;;16.00;;
24483;SDS011;12643;51.620;7.548;2023-06-22T13:28:13;17.73;;;15.65;;
24483;SDS011;12643;51.620;7.548;2023-06-22T13:30:41;15.27;;;13.75;;
24483;SDS011;12643;51.620;7.548;2023-06-22T13:33:11;16.15;;;14.55;;
24483;SDS011;12643;51.620;7.548;2023-06-22T13:35:39;15.13;;;13.65;;
24483;SDS011;12643;51.620;7.548;2023-06-22T13:38:08;16.05;;;14.45;;
24483;SDS011;12643;51.620;7.548;2023-06-22T13:40:36;18.17;;;13.85;;
24483;SDS011;12643;51.620;7.548;2023-06-22T13:43:04;15.70;;;14.07;;
24483;SDS011;12643;51.620;7.548;2023-06-22T13:45:34;15.90;;;13.43;;
24483;SDS011;12643;51.620;7.548;2023-06-22T13:48:02;14.13;;;12.80;;
24483;SDS011;12643;51.620;7.548;2023-06-22T13:50:30;13.90;;;12.45;;
24483;SDS011;12643;51.620;7.548;2023-06-22T13:52:58;14.75;;;13.35;;
24483;SDS011;12643;51.620;7.548;2023-06-22T13:55:26;14.60;;;13.20;;
24483;SDS011;12643;51.620;7.548;2023-06-22T13:57:54;15.80;;;14.20;;
24483;SDS011;12643;51.620;7.548;2023-06-22T14:00:22;16.98;;;15.13;;
24483;SDS011;12643;51.620;7.548;2023-06-22T14:02:51;17.20;;;15.50;;
24483;SDS011;12643;51.620;7.548;2023-06-22T14:05:20;15.85;;;14.25;;
24483;SDS011;12643;51.620;7.548;2023-06-22T14:07:47;17.40;;;15.60;;
24483;SDS011;12643;51.620;7.548;2023-06-22T14:10:15;17.70;;;16.10;;
24483;SDS011;12643;51.620;7.548;2023-06-22T14:12:43;17.52;;;15.82;;
24483;SDS011;12643;51.620;7.548;2023-06-22T14:15:12;17.52;;;15.80;;
24483;SDS011;12643;51.620;7.548;2023-06-22T14:17:40;16.77;;;15.00;;
24483;SDS011;12643;51.620;7.548;2023-06-22T14:20:10;17.92;;;16.23;;
24483;SDS011;12643;51.620;7.548;2023-06-22T14:22:38;17.67;;;15.97;;
24483;SDS011;12643;51.620;7.548;2023-06-22T14:25:06;18.45;;;16.58;;
24483;SDS011;12643;51.620;7.548;2023-06-22T14:27:34;18.30;;;16.55;;
24483;SDS011;12643;51.620;7.548;2023-06-22T14:30:05;17.05;;;15.35;;
24483;SDS011;12643;51.620;7.548;2023-06-22T14:32:34;18.33;;;16.52;;
24483;SDS011;12643;51.620;7.548;2023-06-22T14:35:02;19.42;;;17.35;;
24483;SDS011;12643;51.620;7.548;2023-06-22T14:37:31;21.33;;;18.08;;
24483;SDS011;12643;51.620;7.548;2023-06-22T14:39:59;20.70;;;18.67;;
24483;SDS011;12643;51.620;7.548;2023-06-22T14:42:27;20.92;;;18.75;;
24483;SDS011;12643;51.620;7.548;2023-06-22T14:44:55;20.50;;;18.45;;
24483;SDS011;12643;51.620;7.548;2023-06-22T14:47:23;21.65;;;19.60;;
24483;SDS011;12643;51.620;7.548;2023-06-22T14:49:51;21.35;;;19.15;;
24483;SDS011;12643;51.620;7.548;2023-06-22T14:52:20;21.40;;;19.23;;
24483;SDS011;12643;51.620;7.548;2023-06-22T14:54:49;22.15;;;19.85;;
24483;SDS011;12643;51.620;7.548;2023-06-22T14:57:18;21.85;;;19.75;;